createdAt,value
2023-01-19T00:01:57.655Z,16.10
2023-01-19T00:03:59.436Z,16.10
2023-01-19T00:06:04.895Z,16.10
2023-01-19T00:08:06.780Z,16.10
2023-01-19T00:10:09.519Z,16.10
2023-01-19T00:12:11.262Z,16.10
2023-01-19T00:14:13.205Z,16.10
2023-01-19T00:16:15.673Z,16.10
2023-01-19T00:18:17.610Z,16.10
2023-01-19T00:20:19.392Z,16.10
2023-01-19T00:22:21.317Z,16.10
2023-01-19T00:24:23.118Z,16.10
2023-01-19T00:26:24.980Z,16.10
2023-01-19T00:28:26.718Z,16.10
2023-01-19T00:30:28.623Z,16.10
2023-01-19T00:32:30.569Z,16.10
2023-01-19T00:34:32.421Z,16.10
2023-01-19T00:36:34.193Z,16.10
2023-01-19T00:38:36.069Z,16.10
2023-01-19T00:40:37.877Z,16.10
2023-01-19T00:42:39.783Z,16.10
2023-01-19T00:44:41.606Z,16.10
2023-01-19T00:46:43.449Z,16.10
2023-01-19T00:48:45.213Z,16.10
2023-01-19T00:50:47.838Z,16.10
2023-01-19T00:52:49.790Z,16.10
2023-01-19T00:54:51.893Z,16.10
2023-01-19T00:56:53.980Z,16.10
2023-01-19T00:58:55.903Z,16.10
2023-01-19T01:00:57.938Z,16.10
2023-01-19T01:03:00.434Z,16.10
2023-01-19T01:05:02.460Z,16.10
2023-01-19T01:07:04.332Z,16.10
2023-01-19T01:09:06.221Z,16.10
2023-01-19T01:11:08.642Z,16.10
2023-01-19T01:13:20.325Z,16.10
2023-01-19T01:15:23.609Z,16.10
2023-01-19T01:17:25.408Z,16.10
2023-01-19T01:19:27.588Z,16.10
2023-01-19T01:21:29.466Z,16.10
2023-01-19T01:23:31.507Z,16.10
2023-01-19T01:25:33.364Z,16.10
2023-01-19T01:27:35.256Z,16.10
2023-01-19T01:29:37.160Z,16.00
2023-01-19T01:31:39.037Z,16.10
2023-01-19T01:33:41.905Z,16.10
2023-01-19T01:35:43.898Z,16.10
2023-01-19T01:37:45.844Z,16.10
2023-01-19T01:39:47.770Z,16.10
2023-01-19T01:41:49.688Z,16.00
2023-01-19T01:43:53.075Z,16.00
2023-01-19T01:45:55.643Z,16.00
2023-01-19T01:48:00.226Z,16.00
2023-01-19T01:50:15.124Z,16.00
2023-01-19T01:52:17.624Z,16.00
2023-01-19T01:54:21.576Z,16.00
2023-01-19T01:56:26.028Z,16.00
2023-01-19T01:58:27.963Z,16.00
2023-01-19T02:00:31.080Z,16.00
2023-01-19T02:02:35.574Z,16.00
2023-01-19T02:04:38.353Z,16.00
2023-01-19T02:06:40.151Z,16.00
2023-01-19T02:08:50.485Z,16.00
2023-01-19T02:10:52.315Z,16.00
2023-01-19T02:12:54.214Z,15.90
2023-01-19T02:14:56.142Z,16.00
2023-01-19T02:16:58.236Z,16.00
2023-01-19T02:19:00.024Z,16.00
2023-01-19T02:21:20.337Z,16.00
2023-01-19T02:23:40.646Z,16.00
2023-01-19T02:25:42.958Z,16.00
2023-01-19T02:27:44.781Z,16.00
2023-01-19T02:29:46.662Z,16.00
2023-01-19T02:31:48.539Z,16.00
2023-01-19T02:33:50.441Z,16.00
2023-01-19T02:35:52.707Z,16.00
2023-01-19T02:37:54.625Z,16.00
2023-01-19T02:39:57.993Z,16.00
2023-01-19T02:42:02.350Z,16.00
2023-01-19T02:44:04.733Z,16.00
2023-01-19T02:46:06.845Z,16.00
2023-01-19T02:48:08.677Z,16.00
2023-01-19T02:50:28.949Z,16.00
2023-01-19T02:52:31.176Z,16.00
2023-01-19T02:54:44.325Z,16.00
2023-01-19T02:56:52.048Z,15.90
2023-01-19T02:58:53.885Z,16.00
2023-01-19T03:00:55.714Z,16.00
2023-01-19T03:03:10.617Z,16.00
2023-01-19T03:05:27.684Z,16.00
2023-01-19T03:07:41.801Z,16.00
2023-01-19T03:09:49.565Z,16.00
2023-01-19T03:11:54.454Z,16.00
2023-01-19T03:13:56.405Z,16.00
2023-01-19T03:16:01.484Z,16.00
2023-01-19T03:18:04.724Z,16.00
2023-01-19T03:20:07.400Z,16.00
2023-01-19T03:22:13.326Z,16.00
2023-01-19T03:24:17.318Z,16.00
2023-01-19T03:26:20.690Z,16.00
2023-01-19T03:28:23.169Z,16.00
2023-01-19T03:30:27.635Z,16.00
2023-01-19T03:32:31.702Z,16.00
2023-01-19T03:34:34.314Z,16.00
2023-01-19T03:36:37.603Z,16.00
2023-01-19T03:38:41.474Z,15.90
2023-01-19T03:40:44.043Z,15.90
2023-01-19T03:42:46.685Z,16.00
2023-01-19T03:44:48.539Z,16.00
2023-01-19T03:46:50.802Z,15.90
2023-01-19T03:48:52.915Z,15.90
2023-01-19T03:50:55.292Z,15.90
2023-01-19T03:53:07.671Z,15.90
2023-01-19T03:55:09.724Z,16.00
2023-01-19T03:57:13.827Z,16.00
2023-01-19T03:59:15.688Z,16.00
2023-01-19T04:01:19.776Z,16.00
2023-01-19T04:03:21.595Z,16.00
2023-01-19T04:05:23.638Z,16.00
2023-01-19T04:07:26.685Z,16.00
2023-01-19T04:09:28.550Z,16.00
2023-01-19T04:11:30.335Z,16.00
2023-01-19T04:13:33.534Z,16.00
2023-01-19T04:15:35.419Z,16.00
2023-01-19T04:17:37.461Z,16.00
2023-01-19T04:19:39.293Z,15.90
2023-01-19T04:21:41.972Z,15.90
2023-01-19T04:23:43.878Z,15.90
2023-01-19T04:25:45.854Z,15.90
2023-01-19T04:27:51.275Z,15.90
2023-01-19T04:29:53.142Z,15.90
2023-01-19T04:31:58.370Z,15.90
2023-01-19T04:34:00.183Z,16.00
2023-01-19T04:36:02.411Z,16.00
2023-01-19T04:38:04.210Z,16.00
2023-01-19T04:40:06.371Z,16.00
2023-01-19T04:42:08.235Z,15.90
2023-01-19T04:44:10.056Z,16.00
2023-01-19T04:46:12.010Z,15.90
2023-01-19T04:48:14.381Z,15.80
2023-01-19T04:50:16.924Z,15.90
2023-01-19T04:52:18.771Z,15.90
2023-01-19T04:54:20.800Z,15.90
2023-01-19T04:56:23.348Z,15.90
2023-01-19T04:58:25.300Z,16.00
2023-01-19T05:00:27.186Z,16.00
2023-01-19T05:02:29.145Z,16.00
2023-01-19T05:04:30.996Z,16.00
2023-01-19T05:06:33.528Z,16.00
2023-01-19T05:08:35.488Z,16.00
2023-01-19T05:10:37.342Z,15.90
2023-01-19T05:12:39.357Z,15.90
2023-01-19T05:14:42.427Z,15.90
2023-01-19T05:16:49.356Z,15.90
2023-01-19T05:18:51.229Z,15.90
2023-01-19T05:20:56.209Z,15.90
2023-01-19T05:22:58.730Z,15.90
2023-01-19T05:25:00.843Z,15.90
2023-01-19T05:27:02.666Z,15.70
2023-01-19T05:29:04.705Z,15.90
2023-01-19T05:31:06.812Z,15.90
2023-01-19T05:33:16.174Z,15.90
2023-01-19T05:35:20.186Z,15.90
2023-01-19T05:37:26.948Z,15.90
2023-01-19T05:39:31.624Z,15.90
2023-01-19T05:41:33.743Z,15.90
2023-01-19T05:43:35.883Z,15.90
2023-01-19T05:45:41.100Z,15.90
2023-01-19T05:47:43.590Z,15.90
2023-01-19T05:49:45.365Z,15.90
2023-01-19T05:51:47.493Z,15.90
2023-01-19T05:53:49.225Z,15.90
2023-01-19T05:55:51.447Z,15.90
2023-01-19T05:57:53.277Z,15.90
2023-01-19T05:59:57.547Z,15.90
2023-01-19T06:01:59.378Z,15.90
2023-01-19T06:06:07.491Z,15.90
2023-01-19T06:08:09.377Z,15.90
2023-01-19T06:10:11.214Z,15.90
2023-01-19T06:12:13.022Z,15.90
2023-01-19T06:14:14.783Z,15.90
2023-01-19T06:16:16.566Z,15.90
2023-01-19T06:18:18.288Z,15.90
2023-01-19T06:20:20.151Z,15.90
2023-01-19T06:22:21.859Z,15.90
2023-01-19T06:24:23.604Z,15.90
2023-01-19T06:26:25.362Z,15.90
2023-01-19T06:28:27.414Z,15.90
2023-01-19T06:30:29.163Z,15.90
2023-01-19T06:32:31.026Z,15.90
2023-01-19T06:34:32.745Z,15.80
2023-01-19T06:36:34.550Z,15.90
2023-01-19T06:38:36.269Z,15.90
2023-01-19T06:40:38.037Z,15.90
2023-01-19T06:42:39.736Z,15.90
2023-01-19T06:44:41.558Z,15.90
2023-01-19T06:46:43.299Z,15.90
2023-01-19T06:48:45.064Z,15.90
2023-01-19T06:50:47.351Z,15.90
2023-01-19T06:52:52.479Z,15.90
2023-01-19T06:54:54.181Z,15.90
2023-01-19T06:56:57.302Z,15.90
2023-01-19T06:58:58.999Z,15.90
2023-01-19T07:01:05.014Z,15.90
2023-01-19T07:03:07.439Z,15.90
2023-01-19T07:05:09.631Z,15.90
2023-01-19T07:07:11.356Z,15.90
2023-01-19T07:09:14.589Z,15.90
2023-01-19T07:11:24.689Z,15.90
2023-01-19T07:13:33.692Z,15.90
2023-01-19T07:15:35.477Z,15.90
2023-01-19T07:17:37.529Z,15.90
2023-01-19T07:19:39.223Z,15.90
2023-01-19T07:21:41.043Z,15.90
2023-01-19T07:23:42.972Z,15.90
2023-01-19T07:25:45.557Z,15.90
2023-01-19T07:27:47.316Z,15.90
2023-01-19T07:29:49.056Z,15.90
2023-01-19T07:31:50.860Z,15.90
2023-01-19T07:33:53.937Z,15.90
2023-01-19T07:35:55.665Z,15.90
2023-01-19T07:37:58.591Z,15.90
2023-01-19T07:40:00.392Z,15.90
2023-01-19T07:42:02.516Z,15.90
2023-01-19T07:44:06.569Z,15.90
2023-01-19T07:46:08.505Z,15.90
2023-01-19T07:48:10.292Z,15.90
2023-01-19T07:50:12.395Z,15.90
2023-01-19T07:52:14.209Z,15.90
2023-01-19T07:54:15.971Z,15.90
2023-01-19T07:56:17.669Z,15.90
2023-01-19T07:58:19.505Z,15.80
2023-01-19T08:00:21.636Z,15.80
2023-01-19T08:02:23.523Z,15.80
2023-01-19T08:04:25.955Z,15.90
2023-01-19T08:06:31.646Z,15.90
2023-01-19T08:08:33.727Z,15.80
2023-01-19T08:10:35.520Z,15.80
2023-01-19T08:12:37.232Z,15.90
2023-01-19T08:14:39.032Z,15.90
2023-01-19T08:16:40.784Z,15.90
2023-01-19T08:18:43.833Z,15.90
2023-01-19T08:20:45.805Z,15.90
2023-01-19T08:22:47.638Z,16.00
2023-01-19T08:24:50.449Z,15.90
2023-01-19T08:26:58.123Z,15.90
2023-01-19T08:29:04.036Z,16.00
2023-01-19T08:31:19.145Z,16.00
2023-01-19T08:33:23.359Z,15.90
2023-01-19T08:35:25.172Z,14.70
2023-01-19T08:37:26.868Z,13.90
2023-01-19T08:39:28.691Z,13.30
2023-01-19T08:41:30.445Z,13.00
2023-01-19T08:43:34.063Z,13.70
2023-01-19T08:45:38.149Z,14.30
2023-01-19T08:47:40.043Z,14.80
2023-01-19T08:49:41.763Z,15.10
2023-01-19T08:51:43.506Z,15.40
2023-01-19T08:53:45.232Z,15.50
2023-01-19T08:55:47.019Z,15.60
2023-01-19T08:57:51.020Z,15.60
2023-01-19T08:59:52.834Z,15.70
2023-01-19T09:01:54.617Z,15.90
2023-01-19T09:03:56.569Z,15.90
2023-01-19T09:05:58.516Z,16.00
2023-01-19T09:08:00.574Z,16.00
2023-01-19T09:10:03.475Z,16.00
2023-01-19T09:12:05.265Z,16.10
2023-01-19T09:14:06.993Z,16.10
2023-01-19T09:16:09.403Z,16.10
2023-01-19T09:18:12.723Z,16.10
2023-01-19T09:20:14.538Z,16.10
2023-01-19T09:22:16.352Z,16.10
2023-01-19T09:24:18.146Z,16.10
2023-01-19T09:26:19.863Z,16.20
2023-01-19T09:28:21.659Z,16.20
2023-01-19T09:30:23.429Z,16.30
2023-01-19T09:32:25.400Z,16.30
2023-01-19T09:34:27.137Z,16.30
2023-01-19T09:36:28.921Z,16.40
2023-01-19T09:38:30.644Z,16.40
2023-01-19T09:40:32.509Z,16.40
2023-01-19T09:42:41.415Z,16.40
2023-01-19T09:44:43.540Z,16.40
2023-01-19T09:46:45.416Z,16.40
2023-01-19T09:48:51.717Z,16.40
2023-01-19T09:50:55.796Z,16.50
2023-01-19T09:53:00.863Z,16.50
2023-01-19T09:55:02.773Z,16.50
2023-01-19T09:57:09.345Z,16.50
2023-01-19T09:59:19.275Z,16.50
2023-01-19T10:01:40.234Z,16.50
2023-01-19T10:03:42.007Z,16.60
2023-01-19T10:05:46.604Z,16.60
2023-01-19T10:08:07.166Z,16.60
2023-01-19T10:10:20.584Z,16.60
2023-01-19T10:12:28.410Z,16.60
2023-01-19T10:14:45.480Z,16.60
2023-01-19T10:16:57.627Z,16.50
2023-01-19T10:19:02.491Z,16.50
2023-01-19T10:21:16.453Z,16.50
2023-01-19T10:23:36.877Z,16.60
2023-01-19T10:25:38.998Z,16.70
2023-01-19T10:27:40.891Z,16.60
2023-01-19T10:29:42.659Z,16.60
2023-01-19T10:31:46.043Z,16.60
2023-01-19T10:33:48.875Z,16.60
2023-01-19T10:35:50.644Z,16.60
2023-01-19T10:37:54.079Z,16.60
2023-01-19T10:39:57.961Z,16.60
2023-01-19T10:42:01.410Z,16.60
2023-01-19T10:44:04.453Z,16.60
2023-01-19T10:46:07.836Z,16.60
2023-01-19T10:48:12.158Z,16.70
2023-01-19T10:50:22.953Z,16.70
2023-01-19T10:52:37.464Z,16.70
2023-01-19T10:54:42.761Z,16.70
2023-01-19T10:56:50.379Z,16.70
2023-01-19T10:58:52.139Z,16.70
2023-01-19T11:00:55.215Z,16.70
2023-01-19T11:02:57.084Z,16.80
2023-01-19T11:05:00.012Z,16.80
2023-01-19T11:07:33.866Z,16.80
2023-01-19T11:09:35.619Z,16.80
2023-01-19T11:11:47.774Z,16.80
2023-01-19T11:14:09.090Z,16.90
2023-01-19T11:16:20.055Z,16.80
2023-01-19T11:18:38.468Z,16.80
2023-01-19T11:20:53.440Z,16.90
2023-01-19T11:23:15.452Z,16.80
2023-01-19T11:25:25.934Z,16.80
2023-01-19T11:27:27.981Z,16.80
2023-01-19T11:29:29.901Z,16.80
2023-01-19T11:31:35.185Z,16.80
2023-01-19T11:33:41.282Z,16.80
2023-01-19T11:35:43.125Z,16.80
2023-01-19T11:37:44.847Z,16.80
2023-01-19T11:39:46.651Z,16.80
2023-01-19T11:41:49.840Z,16.80
2023-01-19T11:43:53.977Z,16.80
2023-01-19T11:45:57.038Z,16.80
2023-01-19T11:48:03.063Z,16.80
2023-01-19T11:50:15.789Z,16.80
2023-01-19T11:52:36.217Z,16.80
2023-01-19T11:54:54.096Z,16.80
2023-01-19T11:56:58.045Z,16.70
2023-01-19T11:58:59.825Z,16.70
2023-01-19T12:01:22.388Z,16.70
2023-01-19T12:03:30.051Z,16.70
2023-01-19T12:05:33.269Z,16.70
2023-01-19T12:07:35.797Z,16.70
2023-01-19T12:09:43.062Z,16.70
2023-01-19T12:11:47.783Z,16.70
2023-01-19T12:13:53.761Z,16.70
2023-01-19T12:15:57.959Z,16.70
2023-01-19T12:18:00.992Z,16.60
2023-01-19T12:20:21.581Z,16.60
2023-01-19T12:22:23.949Z,16.60
2023-01-19T12:24:42.337Z,16.60
2023-01-19T12:26:47.872Z,16.70
2023-01-19T12:28:50.456Z,16.70
2023-01-19T12:30:52.774Z,16.70
2023-01-19T12:33:13.360Z,16.70
2023-01-19T12:35:33.612Z,16.60
2023-01-19T12:37:40.409Z,16.60
2023-01-19T12:39:48.132Z,16.60
2023-01-19T12:42:05.072Z,16.60
2023-01-19T12:44:09.806Z,16.60
2023-01-19T12:46:26.081Z,16.60
2023-01-19T12:48:27.995Z,16.60
2023-01-19T12:50:33.162Z,16.60
2023-01-19T12:52:39.092Z,16.60
2023-01-19T12:54:43.641Z,16.70
2023-01-19T12:56:45.452Z,16.70
2023-01-19T12:58:48.332Z,16.60
2023-01-19T13:01:10.228Z,16.60
2023-01-19T13:03:32.240Z,16.60
2023-01-19T13:05:40.117Z,16.60
2023-01-19T13:08:00.762Z,16.70
2023-01-19T13:10:22.541Z,16.70
2023-01-19T13:12:24.970Z,16.60
2023-01-19T13:14:37.255Z,16.70
2023-01-19T13:16:38.978Z,16.70
2023-01-19T13:18:41.559Z,16.70
2023-01-19T13:20:48.968Z,16.70
2023-01-19T13:23:11.001Z,16.70
2023-01-19T13:25:13.854Z,16.70
2023-01-19T13:27:15.688Z,16.70
2023-01-19T13:29:29.200Z,16.70
2023-01-19T13:31:38.381Z,16.70
2023-01-19T13:33:53.703Z,16.70
2023-01-19T13:35:56.922Z,16.70
2023-01-19T13:37:58.969Z,16.70
2023-01-19T13:40:02.075Z,16.70
2023-01-19T13:42:05.990Z,16.70
2023-01-19T13:44:12.381Z,16.70
2023-01-19T13:46:17.655Z,16.80
2023-01-19T13:48:21.457Z,16.80
2023-01-19T13:50:23.193Z,16.70
2023-01-19T13:52:26.114Z,16.80
2023-01-19T13:54:27.847Z,16.70
2023-01-19T13:56:30.176Z,16.70
2023-01-19T13:58:31.952Z,16.80
2023-01-19T14:00:33.847Z,16.80
2023-01-19T14:02:35.690Z,16.80
2023-01-19T14:04:37.558Z,16.80
2023-01-19T14:06:45.367Z,16.70
2023-01-19T14:08:47.841Z,16.70
2023-01-19T14:10:55.557Z,16.70
2023-01-19T14:13:16.302Z,16.70
2023-01-19T14:15:18.099Z,16.70
2023-01-19T14:17:29.681Z,16.70
2023-01-19T14:19:47.153Z,16.70
2023-01-19T14:22:02.202Z,16.70
2023-01-19T14:24:17.257Z,16.70
2023-01-19T14:26:37.274Z,16.80
2023-01-19T14:28:43.613Z,16.80
2023-01-19T14:31:02.016Z,16.80
2023-01-19T14:33:03.903Z,16.80
2023-01-19T14:35:05.978Z,16.80
2023-01-19T14:37:16.895Z,16.80
2023-01-19T14:39:21.941Z,16.70
2023-01-19T14:41:43.941Z,16.70
2023-01-19T14:43:45.798Z,16.70
2023-01-19T14:45:47.919Z,16.70
2023-01-19T14:47:54.893Z,16.70
2023-01-19T14:49:59.097Z,16.70
2023-01-19T14:52:02.439Z,16.70
2023-01-19T14:54:04.274Z,16.70
2023-01-19T14:56:06.483Z,16.70
2023-01-19T14:58:10.048Z,16.70
2023-01-19T15:00:19.163Z,16.70
2023-01-19T15:02:20.980Z,16.70
2023-01-19T15:04:22.814Z,16.70
2023-01-19T15:06:25.103Z,16.70
2023-01-19T15:08:33.639Z,16.70
2023-01-19T15:10:35.847Z,16.70
2023-01-19T15:12:38.722Z,16.60
2023-01-19T15:14:40.665Z,16.70
2023-01-19T15:16:42.799Z,16.60
2023-01-19T15:18:44.556Z,16.60
2023-01-19T15:20:46.364Z,16.70
2023-01-19T15:22:48.730Z,16.60
2023-01-19T15:24:52.536Z,16.60
2023-01-19T15:26:54.355Z,16.60
2023-01-19T15:28:56.408Z,16.60
2023-01-19T15:30:58.421Z,16.60
2023-01-19T15:33:00.249Z,16.70
2023-01-19T15:35:01.976Z,16.60
2023-01-19T15:37:03.902Z,16.60
2023-01-19T15:39:05.668Z,16.60
2023-01-19T15:41:26.911Z,16.60
2023-01-19T15:43:28.686Z,16.60
2023-01-19T15:46:02.889Z,16.60
2023-01-19T15:48:06.195Z,16.60
2023-01-19T15:50:08.271Z,16.60
2023-01-19T15:52:10.036Z,16.50
2023-01-19T15:54:12.841Z,16.50
2023-01-19T15:56:19.049Z,16.50
2023-01-19T15:58:20.795Z,16.50
2023-01-19T16:00:22.704Z,16.50
2023-01-19T16:02:24.584Z,16.50
2023-01-19T16:04:26.437Z,16.50
2023-01-19T16:06:28.455Z,16.50
2023-01-19T16:08:30.261Z,16.50
2023-01-19T16:10:31.969Z,16.50
2023-01-19T16:12:33.775Z,16.50
2023-01-19T16:14:35.550Z,16.50
2023-01-19T16:16:38.459Z,16.40
2023-01-19T16:18:40.348Z,16.40
2023-01-19T16:20:42.174Z,16.40
2023-01-19T16:22:43.899Z,16.40
2023-01-19T16:24:45.779Z,16.40
2023-01-19T16:26:47.537Z,16.40
2023-01-19T16:28:49.442Z,16.40
2023-01-19T16:30:51.214Z,16.40
2023-01-19T16:32:54.188Z,16.40
2023-01-19T16:34:55.974Z,16.40
2023-01-19T16:36:59.201Z,16.40
2023-01-19T16:39:02.211Z,16.40
2023-01-19T16:41:04.028Z,16.40
2023-01-19T16:43:05.917Z,16.40
2023-01-19T16:45:07.924Z,16.40
2023-01-19T16:47:09.752Z,16.40
2023-01-19T16:49:13.769Z,16.40
2023-01-19T16:51:15.575Z,16.40
2023-01-19T16:53:17.376Z,16.40
2023-01-19T16:55:19.095Z,16.40
2023-01-19T16:57:21.920Z,16.40
2023-01-19T16:59:24.197Z,16.40
2023-01-19T17:01:26.904Z,16.40
2023-01-19T17:03:28.983Z,16.40
2023-01-19T17:05:30.894Z,16.40
2023-01-19T17:07:32.624Z,16.40
2023-01-19T17:09:34.464Z,16.40
2023-01-19T17:11:36.662Z,16.40
2023-01-19T17:13:38.788Z,16.40
2023-01-19T17:15:40.560Z,16.40
2023-01-19T17:17:42.378Z,16.40
2023-01-19T17:19:45.317Z,16.40
2023-01-19T17:21:48.047Z,16.40
2023-01-19T17:23:51.052Z,16.40
2023-01-19T17:25:57.368Z,16.40
2023-01-19T17:27:59.356Z,16.40
2023-01-19T17:30:01.204Z,16.40
2023-01-19T17:32:02.995Z,16.30
2023-01-19T17:34:04.806Z,15.00
2023-01-19T17:36:08.520Z,13.90
2023-01-19T17:38:10.340Z,12.60
2023-01-19T17:40:12.383Z,12.30
2023-01-19T17:42:17.121Z,12.10
2023-01-19T17:44:18.832Z,12.70
2023-01-19T17:46:21.774Z,13.40
2023-01-19T17:48:23.550Z,13.80
2023-01-19T17:50:25.309Z,14.10
2023-01-19T17:52:27.069Z,14.40
2023-01-19T17:54:28.881Z,14.60
2023-01-19T17:56:30.925Z,14.70
2023-01-19T17:58:32.761Z,14.90
2023-01-19T18:00:34.487Z,14.90
2023-01-19T18:02:36.316Z,15.00
2023-01-19T18:04:38.581Z,15.10
2023-01-19T18:06:40.383Z,15.10
2023-01-19T18:08:43.359Z,15.20
2023-01-19T18:10:52.496Z,15.20
2023-01-19T18:12:54.224Z,15.30
2023-01-19T18:14:56.024Z,15.30
2023-01-19T18:16:57.829Z,15.40
2023-01-19T18:18:59.672Z,15.40
2023-01-19T18:21:02.509Z,15.40
2023-01-19T18:23:04.283Z,15.40
2023-01-19T18:25:06.175Z,15.50
2023-01-19T18:27:07.976Z,15.50
2023-01-19T18:29:09.689Z,15.50
2023-01-19T18:31:12.642Z,15.50
2023-01-19T18:33:14.424Z,15.50
2023-01-19T18:35:16.232Z,15.50
2023-01-19T18:37:17.992Z,15.60
2023-01-19T18:39:19.948Z,15.50
2023-01-19T18:41:21.876Z,15.60
2023-01-19T18:43:23.697Z,15.60
2023-01-19T18:45:25.413Z,15.60
2023-01-19T18:47:27.208Z,15.60
2023-01-19T18:49:28.958Z,15.70
2023-01-19T18:51:31.263Z,15.60
2023-01-19T18:53:33.070Z,15.60
2023-01-19T18:55:34.894Z,15.70
2023-01-19T18:57:36.637Z,15.70
2023-01-19T18:59:38.451Z,15.70
2023-01-19T19:01:40.286Z,15.70
2023-01-19T19:03:42.099Z,15.70
2023-01-19T19:05:44.157Z,15.70
2023-01-19T19:07:45.959Z,15.70
2023-01-19T19:09:47.686Z,15.80
2023-01-19T19:11:49.632Z,15.70
2023-01-19T19:13:59.470Z,15.70
2023-01-19T19:16:05.140Z,15.80
2023-01-19T19:18:07.033Z,15.80
2023-01-19T19:20:09.113Z,15.70
2023-01-19T19:22:10.867Z,15.70
2023-01-19T19:24:12.638Z,15.70
2023-01-19T19:26:14.365Z,15.80
2023-01-19T19:28:17.861Z,15.80
2023-01-19T19:30:19.629Z,15.80
2023-01-19T19:32:21.479Z,15.80
2023-01-19T19:34:23.295Z,15.80
2023-01-19T19:36:26.079Z,15.80
2023-01-19T19:38:28.446Z,15.80
2023-01-19T19:40:30.265Z,15.80
2023-01-19T19:42:31.989Z,15.80
2023-01-19T19:44:33.772Z,15.80
2023-01-19T19:46:35.509Z,15.80
2023-01-19T19:48:39.212Z,15.80
2023-01-19T19:50:41.227Z,15.80
2023-01-19T19:52:43.201Z,15.80
2023-01-19T19:54:47.525Z,15.80
2023-01-19T19:56:49.336Z,15.80
2023-01-19T19:58:51.944Z,15.80
2023-01-19T20:00:54.207Z,15.80
2023-01-19T20:02:55.994Z,15.80
2023-01-19T20:04:57.824Z,15.80
2023-01-19T20:06:59.616Z,15.80
2023-01-19T20:09:01.374Z,15.80
2023-01-19T20:11:04.292Z,15.80
2023-01-19T20:13:08.922Z,15.80
2023-01-19T20:15:11.184Z,15.80
2023-01-19T20:17:13.129Z,15.80
2023-01-19T20:19:15.064Z,15.70
2023-01-19T20:21:19.457Z,15.70
2023-01-19T20:23:21.195Z,15.80
2023-01-19T20:25:23.012Z,15.70
2023-01-19T20:27:24.744Z,15.70
2023-01-19T20:29:26.543Z,15.70
2023-01-19T20:31:33.113Z,15.70
2023-01-19T20:33:34.974Z,15.70
2023-01-19T20:35:36.720Z,15.70
2023-01-19T20:37:38.475Z,15.70
2023-01-19T20:39:40.227Z,15.70
2023-01-19T20:41:42.053Z,15.70
2023-01-19T20:43:43.773Z,15.70
2023-01-19T20:46:00.855Z,15.80
2023-01-19T20:48:02.708Z,15.80
2023-01-19T20:50:05.304Z,15.80
2023-01-19T20:52:07.056Z,15.80
2023-01-19T20:54:11.838Z,15.80
2023-01-19T20:56:14.549Z,15.70
2023-01-19T20:58:16.498Z,15.70
2023-01-19T21:00:18.598Z,15.80
2023-01-19T21:02:20.475Z,15.80
2023-01-19T21:04:22.421Z,15.70
2023-01-19T21:06:24.217Z,15.70
2023-01-19T21:08:25.965Z,15.70
2023-01-19T21:10:28.126Z,15.80
2023-01-19T21:12:29.841Z,15.70
2023-01-19T21:14:32.853Z,15.80
2023-01-19T21:16:35.362Z,15.80
2023-01-19T21:18:37.150Z,15.70
2023-01-19T21:20:38.897Z,15.70
2023-01-19T21:22:40.998Z,15.70
2023-01-19T21:24:44.443Z,15.70
2023-01-19T21:26:46.360Z,15.70
2023-01-19T21:28:48.077Z,15.70
2023-01-19T21:30:50.445Z,15.70
2023-01-19T21:32:52.213Z,15.70
2023-01-19T21:34:54.016Z,15.80
2023-01-19T21:36:55.768Z,15.70
2023-01-19T21:38:57.685Z,15.80
2023-01-19T21:40:59.413Z,15.80
2023-01-19T21:43:01.456Z,15.80
2023-01-19T21:45:03.274Z,15.70
2023-01-19T21:47:05.121Z,15.70
2023-01-19T21:49:07.903Z,15.70
2023-01-19T21:51:09.995Z,15.80
2023-01-19T21:53:11.734Z,15.70
2023-01-19T21:55:13.800Z,15.70
2023-01-19T21:57:15.686Z,15.70
2023-01-19T21:59:19.695Z,15.70
2023-01-19T22:01:22.423Z,15.70
2023-01-19T22:03:24.326Z,15.70
2023-01-19T22:05:26.264Z,15.70
2023-01-19T22:07:28.054Z,15.70
2023-01-19T22:09:29.765Z,15.70
2023-01-19T22:11:31.615Z,15.70
2023-01-19T22:13:34.142Z,15.70
2023-01-19T22:15:35.946Z,15.60
2023-01-19T22:17:37.668Z,15.60
2023-01-19T22:19:39.530Z,15.70
2023-01-19T22:21:41.250Z,15.70
2023-01-19T22:23:43.399Z,15.70
2023-01-19T22:25:45.149Z,15.70
2023-01-19T22:27:46.938Z,15.70
2023-01-19T22:29:48.705Z,15.60
2023-01-19T22:31:52.252Z,15.70
2023-01-19T22:33:54.578Z,15.60
2023-01-19T22:36:08.503Z,15.60
2023-01-19T22:38:10.231Z,15.70
2023-01-19T22:40:12.160Z,15.70
2023-01-19T22:42:13.886Z,15.60
2023-01-19T22:44:19.649Z,15.60
2023-01-19T22:46:22.261Z,15.60
2023-01-19T22:48:24.083Z,15.60
2023-01-19T22:50:25.829Z,15.60
2023-01-19T22:52:27.619Z,15.60
2023-01-19T22:54:29.354Z,15.60
2023-01-19T22:56:31.953Z,15.60
2023-01-19T22:58:33.673Z,15.60
2023-01-19T23:00:35.526Z,15.60
2023-01-19T23:02:37.251Z,15.60
2023-01-19T23:04:39.089Z,15.60
2023-01-19T23:06:40.825Z,15.60
2023-01-19T23:08:43.046Z,15.60
2023-01-19T23:10:44.773Z,15.60
2023-01-19T23:12:46.569Z,15.60
2023-01-19T23:14:48.279Z,15.50
2023-01-19T23:16:50.140Z,15.50
2023-01-19T23:18:52.805Z,15.50
2023-01-19T23:20:55.279Z,15.50
2023-01-19T23:22:57.019Z,15.50
2023-01-19T23:24:58.809Z,15.50
2023-01-19T23:27:00.577Z,15.50
2023-01-19T23:29:02.372Z,15.50
2023-01-19T23:31:20.278Z,15.50
2023-01-19T23:33:22.181Z,15.50
2023-01-19T23:35:23.898Z,15.50
2023-01-19T23:37:25.684Z,15.50
2023-01-19T23:39:28.693Z,15.50
2023-01-19T23:41:31.247Z,15.50
2023-01-19T23:43:33.165Z,15.50
2023-01-19T23:45:36.638Z,15.50
2023-01-19T23:47:38.353Z,15.50
2023-01-19T23:49:40.155Z,15.50
2023-01-19T23:51:42.144Z,15.50
2023-01-19T23:53:43.953Z,15.50
2023-01-19T23:55:45.671Z,15.50
2023-01-19T23:57:47.658Z,15.50
2023-01-19T23:59:49.469Z,15.50
